sensor_id;sensor_type;location;lat;lon;timestamp;P1;durP1;ratioP1;P2;durP2;ratioP2
39502;SDS011;26970;49.900;10.774;2024-01-15T00:00:37;55.03;;;16.60;;
39502;SDS011;26970;49.900;10.774;2024-01-15T00:03:04;54.78;;;16.85;;
39502;SDS011;26970;49.900;10.774;2024-01-15T00:05:29;46.75;;;14.13;;
39502;SDS011;26970;49.900;10.774;2024-01-15T00:07:55;65.25;;;15.48;;
39502;SDS011;26970;49.900;10.774;2024-01-15T00:10:21;54.83;;;17.75;;
39502;SDS011;26970;49.900;10.774;2024-01-15T00:12:46;53.50;;;16.67;;
39502;SDS011;26970;49.900;10.774;2024-01-15T00:15:12;63.70;;;18.40;;
39502;SDS011;26970;49.900;10.774;2024-01-15T00:17:38;53.22;;;16.23;;
39502;SDS011;26970;49.900;10.774;2024-01-15T00:20:04;50.33;;;14.32;;
39502;SDS011;26970;49.900;10.774;2024-01-15T00:22:30;55.58;;;16.55;;
39502;SDS011;26970;49.900;10.774;2024-01-15T00:24:57;65.82;;;19.15;;
39502;SDS011;26970;49.900;10.774;2024-01-15T00:27:22;43.38;;;14.35;;
39502;SDS011;26970;49.900;10.774;2024-01-15T00:29:48;59.05;;;17.92;;
39502;SDS011;26970;49.900;10.774;2024-01-15T00:32:15;58.35;;;13.07;;
39502;SDS011;26970;49.900;10.774;2024-01-15T00:34:41;42.90;;;16.75;;
39502;SDS011;26970;49.900;10.774;2024-01-15T00:37:07;48.95;;;16.55;;
39502;SDS011;26970;49.900;10.774;2024-01-15T00:39:33;46.40;;;15.25;;
39502;SDS011;26970;49.900;10.774;2024-01-15T00:41:58;53.63;;;16.73;;
39502;SDS011;26970;49.900;10.774;2024-01-15T00:44:24;57.72;;;16.90;;
39502;SDS011;26970;49.900;10.774;2024-01-15T00:46:50;54.38;;;16.60;;
39502;SDS011;26970;49.900;10.774;2024-01-15T00:49:15;53.63;;;17.02;;
39502;SDS011;26970;49.900;10.774;2024-01-15T00:51:41;47.47;;;17.35;;
39502;SDS011;26970;49.900;10.774;2024-01-15T00:54:07;48.05;;;15.88;;
39502;SDS011;26970;49.900;10.774;2024-01-15T00:56:32;46.30;;;14.40;;
39502;SDS011;26970;49.900;10.774;2024-01-15T00:58:58;55.10;;;16.70;;
39502;SDS011;26970;49.900;10.774;2024-01-15T01:01:24;53.90;;;16.65;;
39502;SDS011;26970;49.900;10.774;2024-01-15T01:03:50;43.35;;;15.13;;
39502;SDS011;26970;49.900;10.774;2024-01-15T01:06:16;34.75;;;12.13;;
39502;SDS011;26970;49.900;10.774;2024-01-15T01:08:41;61.65;;;17.67;;
39502;SDS011;26970;49.900;10.774;2024-01-15T01:11:07;58.10;;;16.13;;
39502;SDS011;26970;49.900;10.774;2024-01-15T01:13:32;46.30;;;15.77;;
39502;SDS011;26970;49.900;10.774;2024-01-15T01:15:58;37.33;;;12.23;;
39502;SDS011;26970;49.900;10.774;2024-01-15T01:18:23;43.50;;;13.15;;
39502;SDS011;26970;49.900;10.774;2024-01-15T01:20:49;44.10;;;15.18;;
39502;SDS011;26970;49.900;10.774;2024-01-15T01:23:16;42.50;;;13.93;;
39502;SDS011;26970;49.900;10.774;2024-01-15T01:25:41;54.83;;;15.88;;
39502;SDS011;26970;49.900;10.774;2024-01-15T01:28:07;44.47;;;15.07;;
39502;SDS011;26970;49.900;10.774;2024-01-15T01:30:32;45.50;;;14.20;;
39502;SDS011;26970;49.900;10.774;2024-01-15T01:32:58;45.03;;;12.65;;
39502;SDS011;26970;49.900;10.774;2024-01-15T01:35:24;47.08;;;14.52;;
39502;SDS011;26970;49.900;10.774;2024-01-15T01:37:49;38.10;;;13.75;;
39502;SDS011;26970;49.900;10.774;2024-01-15T01:40:15;36.88;;;11.98;;
39502;SDS011;26970;49.900;10.774;2024-01-15T01:42:41;29.25;;;10.82;;
39502;SDS011;26970;49.900;10.774;2024-01-15T01:45:06;44.88;;;14.90;;
39502;SDS011;26970;49.900;10.774;2024-01-15T01:47:33;39.72;;;13.45;;
39502;SDS011;26970;49.900;10.774;2024-01-15T01:49:59;38.47;;;12.73;;
39502;SDS011;26970;49.900;10.774;2024-01-15T01:52:26;48.88;;;15.52;;
39502;SDS011;26970;49.900;10.774;2024-01-15T01:54:52;40.70;;;14.02;;
39502;SDS011;26970;49.900;10.774;2024-01-15T01:57:17;41.85;;;13.90;;
39502;SDS011;26970;49.900;10.774;2024-01-15T01:59:44;36.45;;;11.52;;
39502;SDS011;26970;49.900;10.774;2024-01-15T02:02:12;39.10;;;13.25;;
39502;SDS011;26970;49.900;10.774;2024-01-15T02:04:38;31.00;;;13.18;;
39502;SDS011;26970;49.900;10.774;2024-01-15T02:07:05;45.08;;;15.40;;
39502;SDS011;26970;49.900;10.774;2024-01-15T02:09:30;37.55;;;12.13;;
39502;SDS011;26970;49.900;10.774;2024-01-15T02:11:57;36.08;;;13.93;;
39502;SDS011;26970;49.900;10.774;2024-01-15T02:14:22;29.67;;;12.40;;
39502;SDS011;26970;49.900;10.774;2024-01-15T02:16:48;41.95;;;13.68;;
39502;SDS011;26970;49.900;10.774;2024-01-15T02:19:17;46.60;;;14.98;;
39502;SDS011;26970;49.900;10.774;2024-01-15T02:21:43;39.90;;;14.18;;
39502;SDS011;26970;49.900;10.774;2024-01-15T02:24:09;36.75;;;11.90;;
39502;SDS011;26970;49.900;10.774;2024-01-15T02:26:35;53.47;;;13.95;;
39502;SDS011;26970;49.900;10.774;2024-01-15T02:29:03;42.05;;;14.38;;
39502;SDS011;26970;49.900;10.774;2024-01-15T02:31:31;37.95;;;13.52;;
39502;SDS011;26970;49.900;10.774;2024-01-15T02:33:57;43.83;;;14.85;;
39502;SDS011;26970;49.900;10.774;2024-01-15T02:36:23;38.40;;;12.90;;
39502;SDS011;26970;49.900;10.774;2024-01-15T02:38:48;39.05;;;13.00;;
39502;SDS011;26970;49.900;10.774;2024-01-15T02:41:14;42.35;;;13.60;;
39502;SDS011;26970;49.900;10.774;2024-01-15T02:43:40;38.63;;;13.70;;
39502;SDS011;26970;49.900;10.774;2024-01-15T02:46:06;41.65;;;13.77;;
39502;SDS011;26970;49.900;10.774;2024-01-15T02:48:32;34.13;;;12.38;;
39502;SDS011;26970;49.900;10.774;2024-01-15T02:50:59;34.15;;;13.40;;
39502;SDS011;26970;49.900;10.774;2024-01-15T02:53:25;26.60;;;9.77;;
39502;SDS011;26970;49.900;10.774;2024-01-15T02:55:51;32.55;;;11.90;;
39502;SDS011;26970;49.900;10.774;2024-01-15T02:58:16;40.58;;;13.02;;
39502;SDS011;26970;49.900;10.774;2024-01-15T03:00:42;36.03;;;12.20;;
39502;SDS011;26970;49.900;10.774;2024-01-15T03:03:08;35.70;;;11.50;;
39502;SDS011;26970;49.900;10.774;2024-01-15T03:05:34;40.38;;;11.75;;
39502;SDS011;26970;49.900;10.774;2024-01-15T03:08:00;43.75;;;12.95;;
39502;SDS011;26970;49.900;10.774;2024-01-15T03:10:26;34.63;;;12.68;;
39502;SDS011;26970;49.900;10.774;2024-01-15T03:12:52;34.25;;;12.10;;
39502;SDS011;26970;49.900;10.774;2024-01-15T03:15:17;36.67;;;12.68;;
39502;SDS011;26970;49.900;10.774;2024-01-15T03:17:43;32.90;;;12.05;;
39502;SDS011;26970;49.900;10.774;2024-01-15T03:20:09;33.58;;;11.75;;
39502;SDS011;26970;49.900;10.774;2024-01-15T03:22:35;31.15;;;11.98;;
39502;SDS011;26970;49.900;10.774;2024-01-15T03:25:01;34.35;;;12.32;;
39502;SDS011;26970;49.900;10.774;2024-01-15T03:27:27;35.75;;;13.43;;
39502;SDS011;26970;49.900;10.774;2024-01-15T03:29:52;39.45;;;12.80;;
39502;SDS011;26970;49.900;10.774;2024-01-15T03:32:18;37.40;;;12.20;;
39502;SDS011;26970;49.900;10.774;2024-01-15T03:34:44;34.72;;;12.00;;
39502;SDS011;26970;49.900;10.774;2024-01-15T03:37:10;38.00;;;12.23;;
39502;SDS011;26970;49.900;10.774;2024-01-15T03:39:37;34.30;;;11.90;;
39502;SDS011;26970;49.900;10.774;2024-01-15T03:42:03;32.60;;;12.05;;
39502;SDS011;26970;49.900;10.774;2024-01-15T03:44:29;36.50;;;12.65;;
39502;SDS011;26970;49.900;10.774;2024-01-15T03:46:54;35.30;;;13.30;;
39502;SDS011;26970;49.900;10.774;2024-01-15T03:49:20;31.50;;;11.13;;
39502;SDS011;26970;49.900;10.774;2024-01-15T03:51:46;36.58;;;11.27;;
39502;SDS011;26970;49.900;10.774;2024-01-15T03:54:11;35.10;;;13.30;;
39502;SDS011;26970;49.900;10.774;2024-01-15T03:56:37;36.95;;;12.00;;
39502;SDS011;26970;49.900;10.774;2024-01-15T03:59:02;26.58;;;10.98;;
39502;SDS011;26970;49.900;10.774;2024-01-15T04:01:28;30.02;;;11.45;;
39502;SDS011;26970;49.900;10.774;2024-01-15T04:03:54;31.80;;;11.38;;
39502;SDS011;26970;49.900;10.774;2024-01-15T04:06:20;21.77;;;8.63;;
39502;SDS011;26970;49.900;10.774;2024-01-15T04:08:45;32.20;;;11.23;;
39502;SDS011;26970;49.900;10.774;2024-01-15T04:11:11;27.13;;;11.05;;
39502;SDS011;26970;49.900;10.774;2024-01-15T04:13:36;36.78;;;11.73;;
39502;SDS011;26970;49.900;10.774;2024-01-15T04:16:02;33.38;;;11.27;;
39502;SDS011;26970;49.900;10.774;2024-01-15T04:18:28;34.80;;;11.65;;
39502;SDS011;26970;49.900;10.774;2024-01-15T04:20:54;28.73;;;11.02;;
39502;SDS011;26970;49.900;10.774;2024-01-15T04:23:19;26.55;;;10.60;;
39502;SDS011;26970;49.900;10.774;2024-01-15T04:25:45;35.13;;;10.90;;
39502;SDS011;26970;49.900;10.774;2024-01-15T04:28:11;27.65;;;10.40;;
39502;SDS011;26970;49.900;10.774;2024-01-15T04:30:37;28.90;;;10.57;;
39502;SDS011;26970;49.900;10.774;2024-01-15T04:33:02;30.15;;;11.98;;
39502;SDS011;26970;49.900;10.774;2024-01-15T04:35:28;28.17;;;11.55;;
39502;SDS011;26970;49.900;10.774;2024-01-15T04:37:54;27.95;;;10.63;;
39502;SDS011;26970;49.900;10.774;2024-01-15T04:40:20;28.35;;;10.15;;
39502;SDS011;26970;49.900;10.774;2024-01-15T04:42:45;31.02;;;11.27;;
39502;SDS011;26970;49.900;10.774;2024-01-15T04:45:11;30.60;;;10.18;;
39502;SDS011;26970;49.900;10.774;2024-01-15T04:47:37;32.63;;;11.13;;
39502;SDS011;26970;49.900;10.774;2024-01-15T04:50:03;31.48;;;11.32;;
39502;SDS011;26970;49.900;10.774;2024-01-15T04:52:29;31.65;;;11.93;;
39502;SDS011;26970;49.900;10.774;2024-01-15T04:54:55;25.25;;;10.38;;
39502;SDS011;26970;49.900;10.774;2024-01-15T04:57:20;30.90;;;11.20;;
39502;SDS011;26970;49.900;10.774;2024-01-15T04:59:46;36.90;;;10.95;;
39502;SDS011;26970;49.900;10.774;2024-01-15T05:02:11;30.52;;;11.45;;
39502;SDS011;26970;49.900;10.774;2024-01-15T05:04:37;31.83;;;10.38;;
39502;SDS011;26970;49.900;10.774;2024-01-15T05:07:02;34.05;;;10.90;;
39502;SDS011;26970;49.900;10.774;2024-01-15T05:09:28;28.60;;;10.30;;
39502;SDS011;26970;49.900;10.774;2024-01-15T05:11:54;28.35;;;10.82;;
39502;SDS011;26970;49.900;10.774;2024-01-15T05:14:19;32.40;;;11.60;;
39502;SDS011;26970;49.900;10.774;2024-01-15T05:16:48;30.80;;;10.43;;
39502;SDS011;26970;49.900;10.774;2024-01-15T05:19:14;24.63;;;9.43;;
39502;SDS011;26970;49.900;10.774;2024-01-15T05:21:40;29.42;;;10.32;;
39502;SDS011;26970;49.900;10.774;2024-01-15T05:24:06;27.95;;;10.98;;
39502;SDS011;26970;49.900;10.774;2024-01-15T05:26:33;31.40;;;10.85;;
39502;SDS011;26970;49.900;10.774;2024-01-15T05:28:58;31.38;;;10.10;;
39502;SDS011;26970;49.900;10.774;2024-01-15T05:31:24;29.35;;;10.57;;
39502;SDS011;26970;49.900;10.774;2024-01-15T05:33:49;25.58;;;11.55;;
39502;SDS011;26970;49.900;10.774;2024-01-15T05:36:15;32.17;;;10.45;;
39502;SDS011;26970;49.900;10.774;2024-01-15T05:38:40;22.92;;;9.75;;
39502;SDS011;26970;49.900;10.774;2024-01-15T05:41:06;27.25;;;10.15;;
39502;SDS011;26970;49.900;10.774;2024-01-15T05:43:32;25.77;;;10.55;;
39502;SDS011;26970;49.900;10.774;2024-01-15T05:45:57;27.58;;;10.30;;
39502;SDS011;26970;49.900;10.774;2024-01-15T05:48:23;26.73;;;11.27;;
39502;SDS011;26970;49.900;10.774;2024-01-15T05:50:48;26.73;;;9.48;;
39502;SDS011;26970;49.900;10.774;2024-01-15T05:53:14;28.23;;;10.60;;
39502;SDS011;26970;49.900;10.774;2024-01-15T05:55:40;24.95;;;10.02;;
39502;SDS011;26970;49.900;10.774;2024-01-15T05:58:05;25.13;;;9.77;;
39502;SDS011;26970;49.900;10.774;2024-01-15T06:00:31;24.17;;;9.98;;
39502;SDS011;26970;49.900;10.774;2024-01-15T06:02:58;32.20;;;11.27;;
39502;SDS011;26970;49.900;10.774;2024-01-15T06:05:24;36.58;;;13.10;;
39502;SDS011;26970;49.900;10.774;2024-01-15T06:07:50;28.08;;;12.10;;
39502;SDS011;26970;49.900;10.774;2024-01-15T06:10:15;32.65;;;10.00;;
39502;SDS011;26970;49.900;10.774;2024-01-15T06:12:42;28.60;;;10.27;;
39502;SDS011;26970;49.900;10.774;2024-01-15T06:15:08;33.22;;;11.13;;
39502;SDS011;26970;49.900;10.774;2024-01-15T06:17:34;32.67;;;11.27;;
39502;SDS011;26970;49.900;10.774;2024-01-15T06:19:59;27.35;;;9.63;;
39502;SDS011;26970;49.900;10.774;2024-01-15T06:22:25;24.92;;;8.63;;
39502;SDS011;26970;49.900;10.774;2024-01-15T06:24:50;27.48;;;10.18;;
39502;SDS011;26970;49.900;10.774;2024-01-15T06:27:16;22.42;;;9.27;;
39502;SDS011;26970;49.900;10.774;2024-01-15T06:29:44;28.98;;;11.95;;
39502;SDS011;26970;49.900;10.774;2024-01-15T06:32:13;34.50;;;11.25;;
39502;SDS011;26970;49.900;10.774;2024-01-15T06:34:39;27.50;;;10.30;;
39502;SDS011;26970;49.900;10.774;2024-01-15T06:37:05;25.58;;;11.40;;
39502;SDS011;26970;49.900;10.774;2024-01-15T06:39:31;27.25;;;11.40;;
39502;SDS011;26970;49.900;10.774;2024-01-15T06:41:56;31.30;;;11.45;;
39502;SDS011;26970;49.900;10.774;2024-01-15T06:44:22;30.85;;;10.98;;
39502;SDS011;26970;49.900;10.774;2024-01-15T06:46:47;33.30;;;10.18;;
39502;SDS011;26970;49.900;10.774;2024-01-15T06:49:13;27.05;;;11.20;;
39502;SDS011;26970;49.900;10.774;2024-01-15T06:51:39;23.80;;;10.20;;
39502;SDS011;26970;49.900;10.774;2024-01-15T06:54:05;27.13;;;10.38;;
39502;SDS011;26970;49.900;10.774;2024-01-15T06:56:31;29.98;;;10.05;;
39502;SDS011;26970;49.900;10.774;2024-01-15T06:58:57;30.48;;;11.15;;
39502;SDS011;26970;49.900;10.774;2024-01-15T07:01:23;27.73;;;9.35;;
39502;SDS011;26970;49.900;10.774;2024-01-15T07:03:49;23.95;;;9.00;;
39502;SDS011;26970;49.900;10.774;2024-01-15T07:06:14;26.45;;;11.70;;
39502;SDS011;26970;49.900;10.774;2024-01-15T07:08:40;31.20;;;11.68;;
39502;SDS011;26970;49.900;10.774;2024-01-15T07:11:06;27.23;;;11.43;;
39502;SDS011;26970;49.900;10.774;2024-01-15T07:13:33;30.52;;;11.18;;
39502;SDS011;26970;49.900;10.774;2024-01-15T07:15:59;36.63;;;11.88;;
39502;SDS011;26970;49.900;10.774;2024-01-15T07:18:25;27.75;;;9.85;;
39502;SDS011;26970;49.900;10.774;2024-01-15T07:20:50;28.88;;;11.15;;
39502;SDS011;26970;49.900;10.774;2024-01-15T07:23:16;32.03;;;10.23;;
39502;SDS011;26970;49.900;10.774;2024-01-15T07:25:42;26.55;;;11.18;;
39502;SDS011;26970;49.900;10.774;2024-01-15T07:28:08;31.92;;;11.38;;
39502;SDS011;26970;49.900;10.774;2024-01-15T07:30:34;25.60;;;10.38;;
39502;SDS011;26970;49.900;10.774;2024-01-15T07:33:00;35.03;;;11.18;;
39502;SDS011;26970;49.900;10.774;2024-01-15T07:35:26;21.70;;;8.98;;
39502;SDS011;26970;49.900;10.774;2024-01-15T07:37:51;33.60;;;11.48;;
39502;SDS011;26970;49.900;10.774;2024-01-15T07:40:17;28.92;;;9.82;;
39502;SDS011;26970;49.900;10.774;2024-01-15T07:42:42;29.88;;;11.10;;
39502;SDS011;26970;49.900;10.774;2024-01-15T07:45:11;30.25;;;10.80;;
39502;SDS011;26970;49.900;10.774;2024-01-15T07:47:37;31.38;;;10.98;;
39502;SDS011;26970;49.900;10.774;2024-01-15T07:50:02;28.63;;;11.82;;
39502;SDS011;26970;49.900;10.774;2024-01-15T07:52:29;25.40;;;9.77;;
39502;SDS011;26970;49.900;10.774;2024-01-15T07:54:55;25.95;;;9.05;;
39502;SDS011;26970;49.900;10.774;2024-01-15T07:57:21;21.05;;;8.60;;
39502;SDS011;26970;49.900;10.774;2024-01-15T07:59:47;25.67;;;11.25;;
39502;SDS011;26970;49.900;10.774;2024-01-15T08:02:13;22.40;;;9.82;;
39502;SDS011;26970;49.900;10.774;2024-01-15T08:04:39;25.35;;;11.45;;
39502;SDS011;26970;49.900;10.774;2024-01-15T08:07:04;28.70;;;10.07;;
39502;SDS011;26970;49.900;10.774;2024-01-15T08:09:31;25.45;;;11.52;;
39502;SDS011;26970;49.900;10.774;2024-01-15T08:11:57;22.58;;;9.55;;
39502;SDS011;26970;49.900;10.774;2024-01-15T08:14:23;24.92;;;10.27;;
39502;SDS011;26970;49.900;10.774;2024-01-15T08:16:49;22.77;;;8.68;;
39502;SDS011;26970;49.900;10.774;2024-01-15T08:19:14;23.95;;;9.63;;
39502;SDS011;26970;49.900;10.774;2024-01-15T08:21:40;23.98;;;10.55;;
39502;SDS011;26970;49.900;10.774;2024-01-15T08:24:05;28.92;;;9.98;;
39502;SDS011;26970;49.900;10.774;2024-01-15T08:26:31;26.02;;;9.05;;
39502;SDS011;26970;49.900;10.774;2024-01-15T08:28:59;26.38;;;9.85;;
39502;SDS011;26970;49.900;10.774;2024-01-15T08:31:25;26.00;;;9.80;;
39502;SDS011;26970;49.900;10.774;2024-01-15T08:33:51;25.20;;;9.85;;
39502;SDS011;26970;49.900;10.774;2024-01-15T08:36:17;25.88;;;10.65;;
39502;SDS011;26970;49.900;10.774;2024-01-15T08:38:43;27.88;;;10.25;;
39502;SDS011;26970;49.900;10.774;2024-01-15T08:41:09;29.48;;;10.20;;
39502;SDS011;26970;49.900;10.774;2024-01-15T08:43:35;23.33;;;8.98;;
39502;SDS011;26970;49.900;10.774;2024-01-15T08:46:01;21.80;;;9.65;;
39502;SDS011;26970;49.900;10.774;2024-01-15T08:48:27;23.42;;;9.43;;
39502;SDS011;26970;49.900;10.774;2024-01-15T08:50:54;25.17;;;10.23;;
39502;SDS011;26970;49.900;10.774;2024-01-15T08:53:20;21.38;;;10.05;;
39502;SDS011;26970;49.900;10.774;2024-01-15T08:55:47;31.55;;;9.75;;
39502;SDS011;26970;49.900;10.774;2024-01-15T08:58:14;25.27;;;9.95;;
39502;SDS011;26970;49.900;10.774;2024-01-15T09:00:39;23.42;;;10.13;;
39502;SDS011;26970;49.900;10.774;2024-01-15T09:03:05;24.20;;;10.30;;
39502;SDS011;26970;49.900;10.774;2024-01-15T09:05:33;26.08;;;10.00;;
39502;SDS011;26970;49.900;10.774;2024-01-15T09:07:59;27.05;;;11.00;;
39502;SDS011;26970;49.900;10.774;2024-01-15T09:10:24;26.10;;;10.68;;
39502;SDS011;26970;49.900;10.774;2024-01-15T09:12:50;22.92;;;9.40;;
39502;SDS011;26970;49.900;10.774;2024-01-15T09:15:16;26.77;;;10.50;;
39502;SDS011;26970;49.900;10.774;2024-01-15T09:17:42;22.75;;;9.70;;
39502;SDS011;26970;49.900;10.774;2024-01-15T09:20:08;24.15;;;9.65;;
39502;SDS011;26970;49.900;10.774;2024-01-15T09:22:35;22.08;;;9.57;;
39502;SDS011;26970;49.900;10.774;2024-01-15T09:25:06;31.27;;;11.55;;
39502;SDS011;26970;49.900;10.774;2024-01-15T09:27:34;19.67;;;8.23;;
39502;SDS011;26970;49.900;10.774;2024-01-15T09:30:01;22.25;;;9.63;;
39502;SDS011;26970;49.900;10.774;2024-01-15T09:32:28;25.38;;;11.02;;
39502;SDS011;26970;49.900;10.774;2024-01-15T09:34:54;24.92;;;10.23;;
39502;SDS011;26970;49.900;10.774;2024-01-15T09:37:20;25.67;;;10.93;;
39502;SDS011;26970;49.900;10.774;2024-01-15T09:39:46;23.63;;;9.32;;
39502;SDS011;26970;49.900;10.774;2024-01-15T09:42:13;25.90;;;10.88;;
39502;SDS011;26970;49.900;10.774;2024-01-15T09:44:39;20.08;;;9.18;;
39502;SDS011;26970;49.900;10.774;2024-01-15T09:47:04;21.63;;;9.35;;
39502;SDS011;26970;49.900;10.774;2024-01-15T09:49:30;23.02;;;9.35;;
39502;SDS011;26970;49.900;10.774;2024-01-15T09:51:56;25.40;;;11.07;;
39502;SDS011;26970;49.900;10.774;2024-01-15T09:54:23;27.20;;;10.95;;
39502;SDS011;26970;49.900;10.774;2024-01-15T09:56:48;25.30;;;10.85;;
39502;SDS011;26970;49.900;10.774;2024-01-15T09:59:17;26.55;;;10.43;;
39502;SDS011;26970;49.900;10.774;2024-01-15T10:01:44;27.05;;;10.50;;
39502;SDS011;26970;49.900;10.774;2024-01-15T10:04:10;29.08;;;11.50;;
39502;SDS011;26970;49.900;10.774;2024-01-15T10:06:43;28.63;;;11.05;;
39502;SDS011;26970;49.900;10.774;2024-01-15T10:09:10;26.15;;;10.45;;
39502;SDS011;26970;49.900;10.774;2024-01-15T10:11:39;28.30;;;10.55;;
39502;SDS011;26970;49.900;10.774;2024-01-15T10:14:06;24.13;;;10.20;;
39502;SDS011;26970;49.900;10.774;2024-01-15T10:16:33;23.33;;;11.23;;
39502;SDS011;26970;49.900;10.774;2024-01-15T10:18:59;26.65;;;10.05;;
39502;SDS011;26970;49.900;10.774;2024-01-15T10:21:24;28.38;;;11.23;;
39502;SDS011;26970;49.900;10.774;2024-01-15T10:23:51;29.73;;;11.75;;
39502;SDS011;26970;49.900;10.774;2024-01-15T10:26:17;32.28;;;11.95;;
39502;SDS011;26970;49.900;10.774;2024-01-15T10:28:43;26.70;;;10.98;;
39502;SDS011;26970;49.900;10.774;2024-01-15T10:31:09;23.20;;;9.70;;
39502;SDS011;26970;49.900;10.774;2024-01-15T10:33:35;27.73;;;10.27;;
39502;SDS011;26970;49.900;10.774;2024-01-15T10:36:00;23.55;;;9.65;;
39502;SDS011;26970;49.900;10.774;2024-01-15T10:38:27;28.83;;;11.65;;
39502;SDS011;26970;49.900;10.774;2024-01-15T10:40:53;23.42;;;9.45;;
39502;SDS011;26970;49.900;10.774;2024-01-15T10:43:20;26.08;;;10.98;;
39502;SDS011;26970;49.900;10.774;2024-01-15T10:45:46;27.42;;;10.48;;
39502;SDS011;26970;49.900;10.774;2024-01-15T10:48:13;25.73;;;10.73;;
39502;SDS011;26970;49.900;10.774;2024-01-15T10:50:40;25.55;;;10.18;;
39502;SDS011;26970;49.900;10.774;2024-01-15T10:53:06;28.10;;;9.88;;
39502;SDS011;26970;49.900;10.774;2024-01-15T10:55:35;21.40;;;11.75;;
39502;SDS011;26970;49.900;10.774;2024-01-15T10:58:02;31.27;;;14.20;;
39502;SDS011;26970;49.900;10.774;2024-01-15T11:00:32;27.73;;;12.52;;
39502;SDS011;26970;49.900;10.774;2024-01-15T11:03:04;21.55;;;10.57;;
39502;SDS011;26970;49.900;10.774;2024-01-15T11:06:04;23.90;;;12.18;;
39502;SDS011;26970;49.900;10.774;2024-01-15T11:08:24;25.77;;;12.20;;
39502;SDS011;26970;49.900;10.774;2024-01-15T11:10:50;26.38;;;12.70;;
39502;SDS011;26970;49.900;10.774;2024-01-15T11:13:21;22.63;;;10.27;;
39502;SDS011;26970;49.900;10.774;2024-01-15T11:15:57;31.50;;;12.13;;
39502;SDS011;26970;49.900;10.774;2024-01-15T11:18:37;21.08;;;9.73;;
39502;SDS011;26970;49.900;10.774;2024-01-15T11:28:53;27.70;;;11.15;;
39502;SDS011;26970;49.900;10.774;2024-01-15T11:31:20;24.65;;;10.48;;
39502;SDS011;26970;49.900;10.774;2024-01-15T11:33:51;22.92;;;11.05;;
39502;SDS011;26970;49.900;10.774;2024-01-15T11:36:17;24.45;;;10.70;;
39502;SDS011;26970;49.900;10.774;2024-01-15T11:38:42;25.02;;;11.35;;
39502;SDS011;26970;49.900;10.774;2024-01-15T11:41:14;20.20;;;10.50;;
39502;SDS011;26970;49.900;10.774;2024-01-15T11:43:43;25.48;;;12.15;;
39502;SDS011;26970;49.900;10.774;2024-01-15T11:46:12;25.42;;;11.88;;
39502;SDS011;26970;49.900;10.774;2024-01-15T11:48:42;25.17;;;11.90;;
39502;SDS011;26970;49.900;10.774;2024-01-15T11:51:12;21.25;;;9.38;;
39502;SDS011;26970;49.900;10.774;2024-01-15T11:53:45;15.63;;;8.40;;
39502;SDS011;26970;49.900;10.774;2024-01-15T11:56:16;20.88;;;9.48;;
39502;SDS011;26970;49.900;10.774;2024-01-15T11:58:43;20.55;;;10.93;;
39502;SDS011;26970;49.900;10.774;2024-01-15T12:01:10;23.40;;;12.05;;
39502;SDS011;26970;49.900;10.774;2024-01-15T12:03:36;22.40;;;11.23;;
39502;SDS011;26970;49.900;10.774;2024-01-15T12:06:01;25.90;;;10.60;;
39502;SDS011;26970;49.900;10.774;2024-01-15T12:08:29;22.17;;;10.75;;
39502;SDS011;26970;49.900;10.774;2024-01-15T12:10:55;20.75;;;9.77;;
39502;SDS011;26970;49.900;10.774;2024-01-15T12:13:21;20.10;;;9.43;;
39502;SDS011;26970;49.900;10.774;2024-01-15T12:15:47;19.42;;;9.85;;
39502;SDS011;26970;49.900;10.774;2024-01-15T12:18:14;23.02;;;10.30;;
39502;SDS011;26970;49.900;10.774;2024-01-15T12:20:41;20.15;;;10.48;;
39502;SDS011;26970;49.900;10.774;2024-01-15T12:23:07;21.73;;;9.40;;
39502;SDS011;26970;49.900;10.774;2024-01-15T12:25:35;18.00;;;8.20;;
39502;SDS011;26970;49.900;10.774;2024-01-15T12:28:01;17.48;;;8.45;;
39502;SDS011;26970;49.900;10.774;2024-01-15T12:30:27;19.35;;;9.73;;
39502;SDS011;26970;49.900;10.774;2024-01-15T12:32:54;15.68;;;8.63;;
39502;SDS011;26970;49.900;10.774;2024-01-15T12:35:20;16.00;;;8.23;;
39502;SDS011;26970;49.900;10.774;2024-01-15T12:37:45;19.75;;;8.95;;
39502;SDS011;26970;49.900;10.774;2024-01-15T12:40:12;23.10;;;8.57;;
39502;SDS011;26970;49.900;10.774;2024-01-15T12:42:43;22.05;;;8.27;;
39502;SDS011;26970;49.900;10.774;2024-01-15T12:45:09;22.05;;;9.57;;
39502;SDS011;26970;49.900;10.774;2024-01-15T12:47:36;18.42;;;8.73;;
39502;SDS011;26970;49.900;10.774;2024-01-15T12:50:02;20.67;;;9.77;;
39502;SDS011;26970;49.900;10.774;2024-01-15T12:52:31;18.95;;;9.95;;
39502;SDS011;26970;49.900;10.774;2024-01-15T12:54:57;14.68;;;7.65;;
39502;SDS011;26970;49.900;10.774;2024-01-15T12:57:23;18.60;;;8.90;;
39502;SDS011;26970;49.900;10.774;2024-01-15T12:59:48;21.45;;;9.15;;
39502;SDS011;26970;49.900;10.774;2024-01-15T13:02:15;18.30;;;8.82;;
39502;SDS011;26970;49.900;10.774;2024-01-15T13:04:41;16.90;;;8.65;;
39502;SDS011;26970;49.900;10.774;2024-01-15T13:07:07;20.85;;;8.13;;
39502;SDS011;26970;49.900;10.774;2024-01-15T13:09:33;18.80;;;9.57;;
39502;SDS011;26970;49.900;10.774;2024-01-15T13:11:59;19.70;;;8.88;;
39502;SDS011;26970;49.900;10.774;2024-01-15T13:14:26;17.33;;;7.43;;
39502;SDS011;26970;49.900;10.774;2024-01-15T13:16:52;17.10;;;8.10;;
39502;SDS011;26970;49.900;10.774;2024-01-15T13:19:18;17.80;;;7.57;;
39502;SDS011;26970;49.900;10.774;2024-01-15T13:21:44;21.10;;;9.55;;
39502;SDS011;26970;49.900;10.774;2024-01-15T13:24:10;15.18;;;8.18;;
39502;SDS011;26970;49.900;10.774;2024-01-15T13:26:36;17.52;;;9.23;;
39502;SDS011;26970;49.900;10.774;2024-01-15T13:29:05;14.65;;;7.10;;
39502;SDS011;26970;49.900;10.774;2024-01-15T13:31:31;15.80;;;7.40;;
39502;SDS011;26970;49.900;10.774;2024-01-15T13:33:57;11.30;;;6.70;;
39502;SDS011;26970;49.900;10.774;2024-01-15T13:36:23;17.88;;;7.88;;
39502;SDS011;26970;49.900;10.774;2024-01-15T13:38:50;16.92;;;8.95;;
39502;SDS011;26970;49.900;10.774;2024-01-15T13:41:17;22.63;;;12.98;;
39502;SDS011;26970;49.900;10.774;2024-01-15T13:43:52;20.33;;;10.13;;
39502;SDS011;26970;49.900;10.774;2024-01-15T13:46:23;20.48;;;9.68;;
39502;SDS011;26970;49.900;10.774;2024-01-15T13:48:51;14.85;;;7.60;;
39502;SDS011;26970;49.900;10.774;2024-01-15T13:51:17;17.63;;;8.68;;
39502;SDS011;26970;49.900;10.774;2024-01-15T13:53:42;16.60;;;8.60;;
39502;SDS011;26970;49.900;10.774;2024-01-15T13:56:08;21.17;;;9.13;;
39502;SDS011;26970;49.900;10.774;2024-01-15T13:58:35;17.20;;;8.38;;
39502;SDS011;26970;49.900;10.774;2024-01-15T14:01:02;18.25;;;8.70;;
39502;SDS011;26970;49.900;10.774;2024-01-15T14:03:29;17.20;;;8.85;;
39502;SDS011;26970;49.900;10.774;2024-01-15T14:05:55;17.63;;;8.65;;
39502;SDS011;26970;49.900;10.774;2024-01-15T14:08:20;13.68;;;7.05;;
39502;SDS011;26970;49.900;10.774;2024-01-15T14:10:46;17.13;;;7.88;;
39502;SDS011;26970;49.900;10.774;2024-01-15T14:13:11;15.15;;;7.90;;
39502;SDS011;26970;49.900;10.774;2024-01-15T14:15:37;14.45;;;7.10;;